createdAt,value
2023-03-13T00:01:50.812Z,88.56
2023-03-13T00:04:23.356Z,88.75
2023-03-13T00:06:56.361Z,88.81
2023-03-13T00:09:28.684Z,88.18
2023-03-13T00:12:01.618Z,88.67
2023-03-13T00:14:35.233Z,89.31
2023-03-13T00:17:08.386Z,89.40
2023-03-13T00:19:41.259Z,89.53
2023-03-13T00:22:15.115Z,89.05
2023-03-13T00:24:48.678Z,89.52
2023-03-13T00:27:22.745Z,89.97
2023-03-13T00:29:55.725Z,90.02
2023-03-13T00:32:28.220Z,90.14
2023-03-13T00:35:01.208Z,89.05
2023-03-13T00:37:34.498Z,89.13
2023-03-13T00:40:09.025Z,89.35
2023-03-13T00:42:42.108Z,88.73
2023-03-13T00:45:15.220Z,89.12
2023-03-13T00:47:49.397Z,89.00
2023-03-13T00:50:21.813Z,88.90
2023-03-13T00:52:54.599Z,88.41
2023-03-13T00:55:27.027Z,88.33
2023-03-13T00:57:59.905Z,87.82
2023-03-13T01:00:32.934Z,88.48
2023-03-13T01:03:06.742Z,88.63
2023-03-13T01:05:39.952Z,88.52
2023-03-13T01:08:12.587Z,87.82
2023-03-13T01:10:45.076Z,87.54
2023-03-13T01:13:18.562Z,86.95
2023-03-13T01:15:51.117Z,85.89
2023-03-13T01:18:24.581Z,86.09
2023-03-13T01:20:57.651Z,85.74
2023-03-13T01:23:30.065Z,86.30
2023-03-13T01:26:03.012Z,85.10
2023-03-13T01:28:36.171Z,85.03
2023-03-13T01:31:30.230Z,84.74
2023-03-13T01:34:05.460Z,84.70
2023-03-13T01:36:38.822Z,83.79
2023-03-13T01:39:11.653Z,84.34
2023-03-13T01:41:45.586Z,84.15
2023-03-13T01:44:27.488Z,84.14
2023-03-13T01:47:00.919Z,84.19
2023-03-13T01:49:35.596Z,83.88
2023-03-13T01:52:19.809Z,84.05
2023-03-13T01:54:57.979Z,84.50
2023-03-13T01:57:39.310Z,84.25
2023-03-13T02:00:20.088Z,84.02
2023-03-13T02:02:56.102Z,83.39
2023-03-13T02:05:30.117Z,82.84
2023-03-13T02:08:15.177Z,82.84
2023-03-13T02:11:19.453Z,83.84
2023-03-13T02:13:52.354Z,83.46
2023-03-13T02:16:25.936Z,83.37
2023-03-13T02:18:59.020Z,83.20
2023-03-13T02:21:45.201Z,83.04
2023-03-13T02:24:41.563Z,82.96
2023-03-13T02:27:13.991Z,82.99
2023-03-13T02:29:48.810Z,83.05
2023-03-13T02:32:22.315Z,82.93
2023-03-13T02:34:58.099Z,82.85
2023-03-13T02:37:31.217Z,81.93
2023-03-13T02:40:09.799Z,81.80
2023-03-13T02:42:44.852Z,81.58
2023-03-13T02:45:18.673Z,81.46
2023-03-13T02:47:51.594Z,81.51
2023-03-13T02:50:24.489Z,81.56
2023-03-13T02:53:02.823Z,80.45
2023-03-13T02:55:41.863Z,79.94
2023-03-13T02:58:15.659Z,79.62
2023-03-13T03:00:48.083Z,78.76
2023-03-13T03:03:21.760Z,78.79
2023-03-13T03:05:54.997Z,78.70
2023-03-13T03:08:28.159Z,78.63
2023-03-13T03:11:01.296Z,78.67
2023-03-13T03:16:22.023Z,79.15
2023-03-13T03:18:54.543Z,79.39
2023-03-13T03:21:27.839Z,79.57
2023-03-13T03:24:00.772Z,79.54
2023-03-13T03:26:33.605Z,79.81
2023-03-13T03:29:08.446Z,79.68
2023-03-13T03:31:41.023Z,79.75
2023-03-13T03:34:14.645Z,79.76
2023-03-13T03:36:47.041Z,79.63
2023-03-13T03:39:19.654Z,79.86
2023-03-13T03:41:52.330Z,79.89
2023-03-13T03:44:25.486Z,79.91
2023-03-13T03:47:00.183Z,79.84
2023-03-13T03:49:33.721Z,79.81
2023-03-13T03:52:06.324Z,79.68
2023-03-13T03:54:41.134Z,79.80
2023-03-13T03:57:14.049Z,80.29
2023-03-13T03:59:47.657Z,80.29
2023-03-13T04:02:20.335Z,80.41
2023-03-13T04:04:54.109Z,80.21
2023-03-13T04:07:28.596Z,80.01
2023-03-13T04:10:01.342Z,80.49
2023-03-13T04:12:36.156Z,80.40
2023-03-13T04:15:21.689Z,80.21
2023-03-13T04:17:54.537Z,80.21
2023-03-13T04:20:29.038Z,80.07
2023-03-13T04:23:01.628Z,80.47
2023-03-13T04:25:35.355Z,80.25
2023-03-13T04:28:09.418Z,80.23
2023-03-13T04:30:43.747Z,80.46
2023-03-13T04:33:21.884Z,80.44
2023-03-13T04:35:56.672Z,80.87
2023-03-13T04:38:31.635Z,81.13
2023-03-13T04:41:19.096Z,80.11
2023-03-13T04:44:12.279Z,79.07
2023-03-13T04:46:52.477Z,77.97
2023-03-13T04:49:33.543Z,76.12
2023-03-13T04:52:16.481Z,74.52
2023-03-13T04:54:51.276Z,73.69
2023-03-13T04:57:28.788Z,73.04
2023-03-13T05:00:05.244Z,72.53
2023-03-13T05:02:39.954Z,71.38
2023-03-13T05:05:19.884Z,70.41
2023-03-13T05:08:00.885Z,69.71
2023-03-13T05:10:38.628Z,68.42
2023-03-13T05:13:17.115Z,67.58
2023-03-13T05:16:01.082Z,66.20
2023-03-13T05:18:53.649Z,64.89
2023-03-13T05:21:33.974Z,64.15
2023-03-13T05:24:08.170Z,63.16
2023-03-13T05:26:50.918Z,61.66
2023-03-13T05:29:24.622Z,61.39
2023-03-13T05:32:01.419Z,61.12
2023-03-13T05:34:35.367Z,60.91
2023-03-13T05:37:25.437Z,60.17
2023-03-13T05:40:15.312Z,58.87
2023-03-13T05:43:05.989Z,58.44
2023-03-13T05:45:46.656Z,58.20
2023-03-13T05:48:20.821Z,57.64
2023-03-13T05:51:12.191Z,56.09
2023-03-13T05:54:04.868Z,54.77
2023-03-13T05:56:54.784Z,54.27
2023-03-13T05:59:28.851Z,53.98
2023-03-13T06:02:03.292Z,54.25
2023-03-13T06:04:38.701Z,54.67
2023-03-13T06:07:11.232Z,52.75
2023-03-13T06:09:44.466Z,52.50
2023-03-13T06:12:17.343Z,52.65
2023-03-13T06:14:49.927Z,52.36
2023-03-13T06:17:27.209Z,52.48
2023-03-13T06:20:00.008Z,52.05
2023-03-13T06:22:33.264Z,52.02
2023-03-13T06:28:05.212Z,52.51
2023-03-13T06:30:38.136Z,52.59
2023-03-13T06:33:10.663Z,52.98
2023-03-13T06:35:56.214Z,53.04
2023-03-13T06:38:20.156Z,52.63
2023-03-13T06:40:52.950Z,52.07
2023-03-13T06:43:26.541Z,52.51
2023-03-13T06:46:02.870Z,52.69
2023-03-13T06:48:36.258Z,51.92
2023-03-13T06:51:14.246Z,49.96
2023-03-13T06:53:48.262Z,48.63
2023-03-13T06:56:21.933Z,47.86
2023-03-13T06:58:56.940Z,46.85
2023-03-13T07:01:30.119Z,47.53
2023-03-13T07:04:03.299Z,48.05
2023-03-13T07:06:36.853Z,48.62
2023-03-13T07:09:10.452Z,48.78
2023-03-13T07:11:43.544Z,48.73
2023-03-13T07:14:17.640Z,48.01
2023-03-13T07:16:50.413Z,47.37
2023-03-13T07:19:24.345Z,46.76
2023-03-13T07:21:57.298Z,47.56
2023-03-13T07:24:30.467Z,47.69
2023-03-13T07:27:07.455Z,47.90
2023-03-13T07:29:37.293Z,48.31
2023-03-13T07:32:10.182Z,48.06
2023-03-13T07:34:44.775Z,48.25
2023-03-13T07:37:19.028Z,47.57
2023-03-13T07:39:52.405Z,46.75
2023-03-13T07:42:25.778Z,46.49
2023-03-13T07:44:58.543Z,46.75
2023-03-13T07:47:31.297Z,46.65
2023-03-13T07:50:04.578Z,46.82
2023-03-13T07:52:37.463Z,46.82
2023-03-13T07:55:10.555Z,47.26
2023-03-13T07:57:43.413Z,47.48
2023-03-13T08:00:18.723Z,47.53
2023-03-13T08:02:51.450Z,46.87
2023-03-13T08:05:24.239Z,47.00
2023-03-13T08:07:56.933Z,47.98
2023-03-13T08:10:29.512Z,48.18
2023-03-13T08:13:02.856Z,48.09
2023-03-13T08:15:35.485Z,48.60
2023-03-13T08:18:07.852Z,49.42
2023-03-13T08:20:41.012Z,49.89
2023-03-13T08:23:13.364Z,50.52
2023-03-13T08:25:46.443Z,51.01
2023-03-13T08:28:18.967Z,50.97
2023-03-13T08:30:51.766Z,50.93
2023-03-13T08:33:26.226Z,50.66
2023-03-13T08:35:58.871Z,50.80
2023-03-13T08:38:36.112Z,51.22
2023-03-13T08:41:08.419Z,51.48
2023-03-13T08:44:11.219Z,51.69
2023-03-13T08:46:39.225Z,51.68
2023-03-13T08:51:57.122Z,51.93
2023-03-13T08:54:30.387Z,51.42
2023-03-13T08:57:03.643Z,51.10
2023-03-13T08:59:36.188Z,51.11
2023-03-13T09:02:11.333Z,51.29
2023-03-13T09:04:43.763Z,51.56
2023-03-13T09:07:16.907Z,51.52
2023-03-13T09:09:49.299Z,51.25
2023-03-13T09:12:30.680Z,50.27
2023-03-13T09:14:57.649Z,50.49
2023-03-13T09:17:30.071Z,50.63
2023-03-13T09:20:04.381Z,50.16
2023-03-13T09:22:38.002Z,50.48
2023-03-13T09:25:20.365Z,50.67
2023-03-13T09:27:53.462Z,50.67
2023-03-13T09:30:26.542Z,50.77
2023-03-13T09:32:59.083Z,50.25
2023-03-13T09:35:32.201Z,50.40
2023-03-13T09:38:04.998Z,51.05
2023-03-13T09:40:45.369Z,50.54
2023-03-13T09:43:31.350Z,49.35
2023-03-13T09:46:07.789Z,48.73
2023-03-13T09:48:55.691Z,48.69
2023-03-13T09:51:40.413Z,49.01
2023-03-13T09:54:23.679Z,48.94
2023-03-13T09:57:19.654Z,48.73
2023-03-13T10:00:13.214Z,48.66
2023-03-13T10:02:49.235Z,48.33
2023-03-13T10:05:29.874Z,47.05
2023-03-13T10:08:16.727Z,47.65
2023-03-13T10:10:55.244Z,47.92
2023-03-13T10:14:01.238Z,47.48
2023-03-13T10:17:10.519Z,47.25
2023-03-13T10:19:43.789Z,46.83
2023-03-13T10:22:23.760Z,46.52
2023-03-13T10:25:10.205Z,46.48
2023-03-13T10:27:51.792Z,45.53
2023-03-13T10:30:32.883Z,44.68
2023-03-13T10:33:22.768Z,44.65
2023-03-13T10:36:29.823Z,44.69
2023-03-13T10:39:02.723Z,44.74
2023-03-13T10:41:38.678Z,45.56
2023-03-13T10:44:21.576Z,46.28
2023-03-13T10:46:54.785Z,47.12
2023-03-13T10:49:27.572Z,47.76
2023-03-13T10:52:06.474Z,48.04
2023-03-13T10:54:41.323Z,47.63
2023-03-13T10:57:31.108Z,47.97
2023-03-13T11:00:27.872Z,48.04
2023-03-13T11:03:00.293Z,47.82
2023-03-13T11:05:45.007Z,47.63
2023-03-13T11:08:24.104Z,47.63
2023-03-13T11:11:07.025Z,47.54
2023-03-13T11:13:44.238Z,48.00
2023-03-13T11:16:32.224Z,48.66
2023-03-13T11:19:27.441Z,48.94
2023-03-13T11:22:22.696Z,48.46
2023-03-13T11:25:39.553Z,48.55
2023-03-13T11:29:00.009Z,49.09
2023-03-13T11:31:49.806Z,48.07
2023-03-13T11:34:40.688Z,48.38
2023-03-13T11:37:37.645Z,48.56
2023-03-13T11:40:30.736Z,49.01
2023-03-13T11:43:24.538Z,49.16
2023-03-13T11:46:06.749Z,48.82
2023-03-13T11:48:56.874Z,48.52
2023-03-13T11:51:53.417Z,47.96
2023-03-13T11:54:37.590Z,47.88
2023-03-13T11:57:23.762Z,47.49
2023-03-13T12:00:31.183Z,47.44
2023-03-13T12:03:39.138Z,46.53
2023-03-13T12:06:28.027Z,46.39
2023-03-13T12:09:34.540Z,46.14
2023-03-13T12:12:28.579Z,45.56
2023-03-13T12:15:19.189Z,45.68
2023-03-13T12:18:35.796Z,45.11
2023-03-13T12:21:39.811Z,44.77
2023-03-13T12:24:47.474Z,44.94
2023-03-13T12:27:39.089Z,44.87
2023-03-13T12:30:48.140Z,45.17
2023-03-13T12:33:29.875Z,45.45
2023-03-13T12:36:29.586Z,45.97
2023-03-13T12:39:31.525Z,46.48
2023-03-13T12:42:45.063Z,46.35
2023-03-13T12:45:20.568Z,46.61
2023-03-13T12:48:31.447Z,46.93
2023-03-13T12:54:21.944Z,47.24
2023-03-13T12:57:23.767Z,47.67
2023-03-13T13:00:02.757Z,48.03
2023-03-13T13:02:35.734Z,48.40
2023-03-13T13:05:23.317Z,48.51
2023-03-13T13:07:57.178Z,48.51
2023-03-13T13:10:30.487Z,48.61
2023-03-13T13:13:20.985Z,48.59
2023-03-13T13:16:08.161Z,48.70
2023-03-13T13:18:41.154Z,48.39
2023-03-13T13:21:22.242Z,48.30
2023-03-13T13:23:57.966Z,48.67
2023-03-13T13:26:39.979Z,48.95
2023-03-13T13:29:20.602Z,49.19
2023-03-13T13:31:59.818Z,49.33
2023-03-13T13:34:37.556Z,49.54
2023-03-13T13:37:18.222Z,49.98
2023-03-13T13:39:54.638Z,49.94
2023-03-13T13:42:40.212Z,49.46
2023-03-13T13:45:31.429Z,49.89
2023-03-13T13:48:28.564Z,49.77
2023-03-13T13:51:15.115Z,50.02
2023-03-13T13:53:50.840Z,49.95
2023-03-13T13:56:47.824Z,50.04
2023-03-13T13:59:34.849Z,50.29
2023-03-13T14:02:16.692Z,50.67
2023-03-13T14:05:04.256Z,51.15
2023-03-13T14:07:51.457Z,50.98
2023-03-13T14:10:42.916Z,51.13
2023-03-13T14:13:22.684Z,51.41
2023-03-13T14:15:56.319Z,51.29
2023-03-13T14:18:32.618Z,51.43
2023-03-13T14:21:08.079Z,51.37
2023-03-13T14:23:46.650Z,51.56
2023-03-13T14:26:26.660Z,51.53
2023-03-13T14:29:05.369Z,51.51
2023-03-13T14:31:40.206Z,51.49
2023-03-13T14:34:14.929Z,51.25
2023-03-13T14:37:07.296Z,51.54
2023-03-13T14:39:42.273Z,51.83
2023-03-13T14:42:18.961Z,51.69
2023-03-13T14:44:53.292Z,51.87
2023-03-13T14:47:32.622Z,52.05
2023-03-13T14:50:06.736Z,52.05
2023-03-13T14:52:41.950Z,52.10
2023-03-13T14:55:28.509Z,52.21
2023-03-13T14:58:05.427Z,52.22
2023-03-13T15:00:45.542Z,52.21
2023-03-13T15:03:22.568Z,52.21
2023-03-13T15:06:13.289Z,52.38
2023-03-13T15:08:48.355Z,52.08
2023-03-13T15:14:41.611Z,51.96
2023-03-13T15:17:30.999Z,52.06
2023-03-13T15:20:05.946Z,52.24
2023-03-13T15:22:41.416Z,52.49
2023-03-13T15:25:18.047Z,52.62
2023-03-13T15:27:51.306Z,52.82
2023-03-13T15:30:24.619Z,52.98
2023-03-13T15:32:57.596Z,53.07
2023-03-13T15:35:32.721Z,53.54
2023-03-13T15:38:05.824Z,53.45
2023-03-13T15:40:39.504Z,53.22
2023-03-13T15:43:14.064Z,53.59
2023-03-13T15:45:48.802Z,53.76
2023-03-13T15:48:32.966Z,53.90
2023-03-13T15:51:07.305Z,54.01
2023-03-13T15:53:39.832Z,54.06
2023-03-13T15:56:20.001Z,54.26
2023-03-13T15:58:52.806Z,53.98
2023-03-13T16:01:25.580Z,53.94
2023-03-13T16:03:58.433Z,54.41
2023-03-13T16:06:34.088Z,54.18
2023-03-13T16:09:07.666Z,54.17
2023-03-13T16:11:40.769Z,53.95
2023-03-13T16:14:13.763Z,54.26
2023-03-13T16:16:47.216Z,54.17
2023-03-13T16:19:20.178Z,54.03
2023-03-13T16:21:53.910Z,54.07
2023-03-13T16:24:27.859Z,54.14
2023-03-13T16:27:00.404Z,54.17
2023-03-13T16:29:33.141Z,54.44
2023-03-13T16:32:06.635Z,54.61
2023-03-13T16:34:41.271Z,54.53
2023-03-13T16:37:18.919Z,54.74
2023-03-13T16:39:51.859Z,55.05
2023-03-13T16:42:24.368Z,54.77
2023-03-13T16:44:57.533Z,55.09
2023-03-13T16:47:31.831Z,55.13
2023-03-13T16:50:06.412Z,55.30
2023-03-13T16:52:42.729Z,55.40
2023-03-13T16:55:15.598Z,55.35
2023-03-13T16:57:48.861Z,55.82
2023-03-13T17:00:23.381Z,55.76
2023-03-13T17:02:57.710Z,56.01
2023-03-13T17:05:30.721Z,56.09
2023-03-13T17:08:03.872Z,56.53
2023-03-13T17:10:37.923Z,56.75
2023-03-13T17:13:11.485Z,56.92
2023-03-13T17:15:44.733Z,56.89
2023-03-13T17:18:17.749Z,57.08
2023-03-13T17:20:52.112Z,57.25
2023-03-13T17:23:28.662Z,57.32
2023-03-13T17:26:03.197Z,57.70
2023-03-13T17:28:38.402Z,57.59
2023-03-13T17:31:12.464Z,57.79
2023-03-13T17:33:45.288Z,57.96
2023-03-13T17:39:13.189Z,58.18
2023-03-13T17:41:46.522Z,58.18
2023-03-13T17:44:19.507Z,58.36
2023-03-13T17:46:53.961Z,58.49
2023-03-13T17:49:27.296Z,58.69
2023-03-13T17:52:00.145Z,58.82
2023-03-13T17:54:33.314Z,58.86
2023-03-13T17:57:26.846Z,58.94
2023-03-13T18:00:00.012Z,58.92
2023-03-13T18:02:34.910Z,59.00
2023-03-13T18:05:29.562Z,59.05
2023-03-13T18:08:03.626Z,59.09
2023-03-13T18:10:38.128Z,59.27
2023-03-13T18:13:12.819Z,59.11
2023-03-13T18:15:45.624Z,59.36
2023-03-13T18:18:18.820Z,59.77
2023-03-13T18:20:52.047Z,59.59
2023-03-13T18:23:24.592Z,59.71
2023-03-13T18:25:59.212Z,59.76
2023-03-13T18:28:33.039Z,60.01
2023-03-13T18:31:06.613Z,59.94
2023-03-13T18:33:41.794Z,59.90
2023-03-13T18:36:21.404Z,59.87
2023-03-13T18:38:56.678Z,59.70
2023-03-13T18:41:30.369Z,59.45
2023-03-13T18:44:04.085Z,59.46
2023-03-13T18:46:37.146Z,59.56
2023-03-13T18:49:25.461Z,59.43
2023-03-13T18:51:59.666Z,59.29
2023-03-13T18:54:32.791Z,59.28
2023-03-13T18:57:17.657Z,59.71
2023-03-13T18:59:50.449Z,59.19
2023-03-13T19:02:25.690Z,59.83
2023-03-13T19:05:00.488Z,59.71
2023-03-13T19:07:33.730Z,59.80
2023-03-13T19:10:14.846Z,60.00
2023-03-13T19:12:48.385Z,60.00
2023-03-13T19:15:24.851Z,60.12
2023-03-13T19:17:58.456Z,60.30
2023-03-13T19:20:31.618Z,60.31
2023-03-13T19:23:04.922Z,60.38
2023-03-13T19:25:37.688Z,59.89
2023-03-13T19:28:11.433Z,59.92
2023-03-13T19:30:44.495Z,60.00
2023-03-13T19:33:18.812Z,60.04
2023-03-13T19:35:51.668Z,59.60
2023-03-13T19:38:25.117Z,59.55
2023-03-13T19:40:57.792Z,60.96
2023-03-13T19:43:30.685Z,60.49
2023-03-13T19:46:05.456Z,60.26
2023-03-13T19:48:38.557Z,60.09
2023-03-13T19:51:12.498Z,59.72
2023-03-13T19:53:47.276Z,59.47
2023-03-13T19:56:23.737Z,59.62
2023-03-13T19:59:01.683Z,59.78
2023-03-13T20:01:34.443Z,59.67
2023-03-13T20:04:07.255Z,59.87
2023-03-13T20:06:40.086Z,60.20
2023-03-13T20:09:15.250Z,60.25
2023-03-13T20:11:47.720Z,60.28
2023-03-13T20:14:20.692Z,60.28
2023-03-13T20:16:54.503Z,60.66
2023-03-13T20:19:28.630Z,60.92
2023-03-13T20:22:03.836Z,61.04
2023-03-13T20:24:35.967Z,60.89
2023-03-13T20:27:09.912Z,61.15
2023-03-13T20:29:44.244Z,61.00
2023-03-13T20:32:17.048Z,61.32
2023-03-13T20:34:49.937Z,61.02
2023-03-13T20:37:24.213Z,61.01
2023-03-13T20:39:58.181Z,61.24
2023-03-13T20:42:32.541Z,61.06
2023-03-13T20:45:05.636Z,61.44
2023-03-13T20:47:39.890Z,61.26
2023-03-13T20:50:13.096Z,61.48
2023-03-13T20:52:46.555Z,61.53
2023-03-13T20:55:19.623Z,61.98
2023-03-13T20:57:53.413Z,61.95
2023-03-13T21:00:27.858Z,61.70
2023-03-13T21:03:00.730Z,61.89
2023-03-13T21:05:33.407Z,61.92
2023-03-13T21:08:06.073Z,61.90
2023-03-13T21:10:39.959Z,61.73
2023-03-13T21:13:12.664Z,61.65
2023-03-13T21:15:45.322Z,61.64
2023-03-13T21:18:18.453Z,61.76
2023-03-13T21:20:50.837Z,62.02
2023-03-13T21:23:24.109Z,61.85
2023-03-13T21:25:56.857Z,61.96
2023-03-13T21:28:29.830Z,62.38
2023-03-13T21:31:12.729Z,62.66
2023-03-13T21:33:45.862Z,62.48
2023-03-13T21:36:22.107Z,62.37
2023-03-13T21:38:54.807Z,61.69
2023-03-13T21:41:27.974Z,61.96
2023-03-13T21:44:00.333Z,61.94
2023-03-13T21:46:34.622Z,61.85
2023-03-13T21:49:07.384Z,62.22
2023-03-13T21:51:40.633Z,62.33
2023-03-13T21:54:13.735Z,62.10
2023-03-13T21:56:46.366Z,62.17
2023-03-13T21:59:19.388Z,62.14
2023-03-13T22:01:51.802Z,62.17
2023-03-13T22:04:24.323Z,62.06
2023-03-13T22:06:58.635Z,62.12
2023-03-13T22:09:30.893Z,62.04
2023-03-13T22:12:03.940Z,62.10
2023-03-13T22:14:37.317Z,61.99
2023-03-13T22:17:11.392Z,61.93
2023-03-13T22:19:44.858Z,62.24
2023-03-13T22:22:19.676Z,62.43
2023-03-13T22:24:53.921Z,62.36
2023-03-13T22:27:26.638Z,62.64
2023-03-13T22:29:59.436Z,62.68
2023-03-13T22:32:32.026Z,62.57
2023-03-13T22:35:04.938Z,62.81
2023-03-13T22:37:38.012Z,62.93
2023-03-13T22:40:12.887Z,63.00
2023-03-13T22:42:45.870Z,63.31
2023-03-13T22:45:19.009Z,63.33
2023-03-13T22:47:51.536Z,63.17
2023-03-13T22:50:25.906Z,63.40
2023-03-13T22:52:58.839Z,63.45
2023-03-13T22:55:33.543Z,63.33
2023-03-13T22:58:07.735Z,63.62
2023-03-13T23:00:40.125Z,63.41
2023-03-13T23:03:13.751Z,63.61
2023-03-13T23:05:47.731Z,63.66
2023-03-13T23:08:20.066Z,63.80
2023-03-13T23:10:52.520Z,64.25
2023-03-13T23:13:25.601Z,64.38
2023-03-13T23:15:58.873Z,64.27
2023-03-13T23:18:32.136Z,64.41
2023-03-13T23:21:10.820Z,64.50
2023-03-13T23:23:44.394Z,64.45
2023-03-13T23:26:17.330Z,64.73
2023-03-13T23:28:50.921Z,65.12
2023-03-13T23:31:23.515Z,65.01
2023-03-13T23:33:56.622Z,64.93
2023-03-13T23:36:29.179Z,65.29
2023-03-13T23:39:03.051Z,65.38
2023-03-13T23:41:35.947Z,65.76
2023-03-13T23:44:08.287Z,65.86
2023-03-13T23:46:40.652Z,66.08
2023-03-13T23:49:16.364Z,66.49
2023-03-13T23:51:49.558Z,66.41
2023-03-13T23:54:23.301Z,66.85
2023-03-13T23:56:56.303Z,67.11
2023-03-13T23:59:28.796Z,66.95
